Millfield, Ohio
Current Conditions -  °F | °C
As of 1:30 AM on Monday 26 Jan 2015 (Local Time) from KUNI Reporting Station
Drizzle Drizzle  
Wind Chill: 36°   Ceiling: 500
Heat Index: 36°   Visibility: 4mi
Dew Point: 35°   Wind: 3mph
Humidity: 95%   Direction: 20°NNE
Pressure: 29.68"   Gusts: NA
Location:  39.43°N, 82.1°W
Report Text: KUNI 260630Z AUTO 02003KT 4SM -DZ OVC005 02/02 A2968 RMK AO2 T00220015
Loading
Personal Weather Stations






























Interactive Weather Map New forecast layout! Learn more

10-Day Weather Forecast

Advertisements
Track Severe Weather on mobile